createdAt,value
2022-12-05T00:02:25.537Z,47.38
2022-12-05T00:04:59.614Z,47.28
2022-12-05T00:07:29.863Z,51.22
2022-12-05T00:10:00.949Z,44.80
2022-12-05T00:12:33.519Z,45.58
2022-12-05T00:15:19.966Z,49.20
2022-12-05T00:18:07.543Z,53.15
2022-12-05T00:23:20.510Z,44.90
2022-12-05T00:25:52.398Z,49.30
2022-12-05T00:28:25.933Z,55.13
2022-12-05T00:30:54.851Z,59.20
2022-12-05T00:33:35.037Z,49.20
2022-12-05T00:36:10.705Z,55.85
2022-12-05T00:38:39.619Z,57.60
2022-12-05T00:41:09.188Z,53.67
2022-12-05T00:43:57.201Z,45.50
2022-12-05T00:46:45.510Z,54.60
2022-12-05T00:49:28.308Z,48.40
2022-12-05T00:52:15.956Z,51.00
2022-12-05T00:54:49.957Z,51.97
2022-12-05T00:57:21.220Z,51.45
2022-12-05T00:59:50.233Z,53.92
2022-12-05T01:02:21.731Z,55.08
2022-12-05T01:04:51.752Z,50.30
2022-12-05T01:09:57.072Z,49.97
2022-12-05T01:12:28.061Z,52.95
2022-12-05T01:15:15.545Z,50.78
2022-12-05T01:18:01.162Z,46.28
2022-12-05T01:20:49.050Z,57.28
2022-12-05T01:23:35.871Z,50.00
2022-12-05T01:26:06.953Z,52.17
2022-12-05T01:28:35.974Z,55.20
2022-12-05T01:31:06.393Z,53.72
2022-12-05T01:33:39.598Z,50.20
2022-12-05T01:36:28.135Z,57.45
2022-12-05T01:39:14.556Z,53.28
2022-12-05T01:42:02.190Z,52.20
2022-12-05T01:44:49.705Z,46.80
2022-12-05T01:47:37.826Z,47.28
2022-12-05T01:50:09.780Z,51.53
2022-12-05T01:52:53.428Z,51.42
2022-12-05T01:55:25.236Z,46.30
2022-12-05T01:58:09.352Z,53.15
2022-12-05T02:00:40.154Z,48.33
2022-12-05T02:03:22.129Z,65.85
2022-12-05T02:05:52.541Z,51.40
2022-12-05T02:08:21.414Z,52.88
2022-12-05T02:10:52.564Z,44.80
2022-12-05T02:13:32.007Z,61.00
2022-12-05T02:16:19.598Z,46.67
2022-12-05T02:18:53.597Z,47.03
2022-12-05T02:21:24.164Z,51.08
2022-12-05T02:23:52.121Z,48.15
2022-12-05T02:26:30.078Z,48.38
2022-12-05T02:29:16.511Z,47.35
2022-12-05T02:31:56.393Z,47.58
2022-12-05T02:34:39.594Z,45.97
2022-12-05T02:37:14.635Z,45.67
2022-12-05T02:39:42.885Z,49.25
2022-12-05T02:42:16.073Z,44.42
2022-12-05T02:44:58.821Z,48.00
2022-12-05T02:47:31.838Z,51.20
2022-12-05T02:50:04.045Z,48.65
2022-12-05T02:52:35.441Z,55.72
2022-12-05T02:55:04.729Z,50.00
2022-12-05T02:57:37.713Z,45.05
2022-12-05T03:00:08.799Z,53.33
2022-12-05T03:02:59.409Z,41.00
2022-12-05T03:05:41.798Z,45.90
2022-12-05T03:08:14.175Z,49.95
2022-12-05T03:10:43.615Z,43.90
2022-12-05T03:13:17.132Z,52.13
2022-12-05T03:15:49.045Z,47.63
2022-12-05T03:18:25.143Z,49.47
2022-12-05T03:21:00.433Z,48.35
2022-12-05T03:23:35.425Z,50.22
2022-12-05T03:26:14.336Z,49.25
2022-12-05T03:28:53.249Z,49.83
2022-12-05T03:31:33.527Z,47.85
2022-12-05T03:34:04.356Z,51.72
2022-12-05T03:36:45.037Z,53.28
2022-12-05T03:39:19.592Z,52.28
2022-12-05T03:42:13.292Z,60.88
2022-12-05T03:45:17.743Z,49.38
2022-12-05T03:48:14.537Z,45.40
2022-12-05T03:50:54.992Z,57.85
2022-12-05T03:53:38.977Z,46.78
2022-12-05T03:56:23.498Z,46.75
2022-12-05T03:59:11.769Z,47.10
2022-12-05T04:01:55.785Z,51.15
2022-12-05T04:04:36.005Z,59.92
2022-12-05T04:07:16.362Z,53.50
2022-12-05T04:09:51.834Z,49.42
2022-12-05T04:12:24.369Z,60.55
2022-12-05T04:15:04.592Z,52.60
2022-12-05T04:17:58.574Z,48.67
2022-12-05T04:21:06.423Z,54.50
2022-12-05T04:24:07.963Z,53.22
2022-12-05T04:26:44.096Z,55.38
2022-12-05T04:29:31.850Z,59.47
2022-12-05T04:32:24.550Z,59.17
2022-12-05T04:35:08.291Z,62.40
2022-12-05T04:37:52.071Z,57.17
2022-12-05T04:40:25.981Z,49.17
2022-12-05T04:42:57.113Z,55.00
2022-12-05T04:45:26.890Z,56.10
2022-12-05T04:48:01.128Z,54.55
2022-12-05T04:50:34.110Z,55.85
2022-12-05T04:53:03.711Z,53.40
2022-12-05T04:55:34.848Z,57.42
2022-12-05T04:58:15.003Z,48.42
2022-12-05T05:01:18.403Z,61.38
2022-12-05T05:03:56.658Z,49.92
2022-12-05T05:06:28.435Z,53.95
2022-12-05T05:09:03.827Z,50.53
2022-12-05T05:11:51.480Z,50.00
2022-12-05T05:14:41.862Z,50.08
2022-12-05T05:17:24.758Z,45.25
2022-12-05T05:20:16.870Z,45.75
2022-12-05T05:22:53.017Z,47.70
2022-12-05T05:25:22.214Z,44.22
2022-12-05T05:27:54.664Z,49.97
2022-12-05T05:30:29.245Z,48.33
2022-12-05T05:33:15.630Z,47.58
2022-12-05T05:35:43.966Z,43.30
2022-12-05T05:38:12.484Z,47.65
2022-12-05T05:40:41.498Z,39.70
2022-12-05T05:43:10.055Z,40.63
2022-12-05T05:45:39.739Z,45.92
2022-12-05T05:48:09.143Z,43.83
2022-12-05T05:50:41.058Z,44.53
2022-12-05T05:53:31.918Z,38.58
2022-12-05T05:56:21.707Z,46.90
2022-12-05T05:59:10.416Z,51.17
2022-12-05T06:01:57.973Z,39.65
2022-12-05T06:04:45.641Z,44.72
2022-12-05T06:07:33.327Z,41.97
2022-12-05T06:10:17.117Z,45.00
2022-12-05T06:13:01.801Z,45.53
2022-12-05T06:15:34.835Z,45.33
2022-12-05T06:18:03.242Z,41.28
2022-12-05T06:20:33.049Z,43.58
2022-12-05T06:23:01.472Z,49.80
2022-12-05T06:25:30.966Z,44.50
2022-12-05T06:28:00.313Z,40.80
2022-12-05T06:30:29.111Z,42.25
2022-12-05T06:33:15.008Z,37.35
2022-12-05T06:35:44.268Z,46.50
2022-12-05T06:38:31.674Z,42.40
2022-12-05T06:41:09.623Z,44.53
2022-12-05T06:44:01.650Z,42.67
2022-12-05T06:46:50.060Z,42.13
2022-12-05T06:49:19.165Z,42.90
2022-12-05T06:52:05.418Z,40.30
2022-12-05T06:54:48.722Z,42.67
2022-12-05T06:57:34.747Z,31.67
2022-12-05T07:00:29.160Z,44.40
2022-12-05T07:03:18.947Z,43.13
2022-12-05T07:06:03.908Z,41.95
2022-12-05T07:08:51.640Z,40.90
2022-12-05T07:11:22.390Z,41.70
2022-12-05T07:14:14.865Z,42.28
2022-12-05T07:16:58.958Z,39.38
2022-12-05T07:19:48.473Z,42.65
2022-12-05T07:22:18.045Z,44.42
2022-12-05T07:24:49.123Z,40.53
2022-12-05T07:27:23.330Z,43.83
2022-12-05T07:29:55.363Z,41.20
2022-12-05T07:32:26.274Z,40.30
2022-12-05T07:34:56.347Z,42.65
2022-12-05T07:37:26.296Z,42.97
2022-12-05T07:40:00.488Z,42.65
2022-12-05T07:42:53.421Z,42.22
2022-12-05T07:45:41.080Z,46.40
2022-12-05T07:48:21.202Z,41.50
2022-12-05T07:51:02.424Z,41.20
2022-12-05T07:53:41.527Z,44.03
2022-12-05T07:56:10.344Z,46.28
2022-12-05T07:58:39.406Z,42.60
2022-12-05T08:01:15.834Z,41.88
2022-12-05T08:04:03.548Z,44.40
2022-12-05T08:06:34.948Z,42.92
2022-12-05T08:09:03.621Z,43.60
2022-12-05T08:11:36.016Z,50.63
2022-12-05T08:14:24.007Z,46.72
2022-12-05T08:17:13.679Z,43.85
2022-12-05T08:20:02.302Z,44.20
2022-12-05T08:22:52.673Z,52.80
2022-12-05T08:25:24.634Z,52.95
2022-12-05T08:27:55.333Z,46.75
2022-12-05T08:30:24.705Z,43.47
2022-12-05T08:33:12.575Z,64.68
2022-12-05T08:35:40.993Z,50.40
2022-12-05T08:38:09.555Z,50.97
2022-12-05T08:40:43.595Z,49.33
2022-12-05T08:43:12.579Z,45.08
2022-12-05T08:45:41.140Z,51.97
2022-12-05T08:48:11.023Z,46.72
2022-12-05T08:50:40.916Z,48.50
2022-12-05T08:53:14.091Z,46.72
2022-12-05T08:55:43.204Z,46.33
2022-12-05T08:58:33.333Z,48.97
2022-12-05T09:01:26.123Z,53.42
2022-12-05T09:04:16.307Z,49.22
2022-12-05T09:07:02.973Z,47.78
2022-12-05T09:09:46.178Z,50.60
2022-12-05T09:12:33.976Z,52.10
2022-12-05T09:15:17.099Z,32.80
2022-12-05T09:18:06.244Z,49.25
2022-12-05T09:20:53.842Z,52.38
2022-12-05T09:23:41.995Z,50.80
2022-12-05T09:26:30.955Z,47.45
2022-12-05T09:29:19.656Z,55.40
2022-12-05T09:32:07.506Z,45.97
2022-12-05T09:34:55.512Z,50.85
2022-12-05T09:37:45.440Z,48.13
2022-12-05T09:40:33.250Z,48.17
2022-12-05T09:43:33.105Z,44.42
2022-12-05T09:46:35.521Z,48.95
2022-12-05T09:49:11.874Z,45.45
2022-12-05T09:51:44.466Z,49.22
2022-12-05T09:54:13.904Z,58.03
2022-12-05T09:56:45.232Z,57.47
2022-12-05T09:59:15.785Z,44.60
2022-12-05T10:02:07.690Z,48.47
2022-12-05T10:04:58.602Z,43.97
2022-12-05T10:07:46.883Z,54.10
2022-12-05T10:10:21.159Z,43.65
2022-12-05T10:12:52.422Z,37.83
2022-12-05T10:15:33.072Z,44.15
2022-12-05T10:18:06.031Z,45.08
2022-12-05T10:21:13.252Z,48.25
2022-12-05T10:24:01.650Z,37.95
2022-12-05T10:26:38.129Z,42.17
2022-12-05T10:29:23.234Z,43.55
2022-12-05T10:31:55.603Z,37.95
2022-12-05T10:34:40.552Z,36.95
2022-12-05T10:37:17.235Z,45.45
2022-12-05T10:39:46.778Z,38.95
2022-12-05T10:42:20.856Z,40.40
2022-12-05T10:44:56.612Z,43.20
2022-12-05T10:47:26.018Z,36.67
2022-12-05T10:49:56.889Z,38.58
2022-12-05T10:52:31.291Z,36.38
2022-12-05T10:55:03.974Z,35.33
2022-12-05T10:58:12.683Z,37.00
2022-12-05T11:01:07.890Z,36.15
2022-12-05T11:03:57.417Z,35.17
2022-12-05T11:06:51.263Z,38.13
2022-12-05T11:09:24.138Z,37.85
2022-12-05T11:12:04.650Z,35.83
2022-12-05T11:14:34.531Z,34.65
2022-12-05T11:17:04.817Z,33.88
2022-12-05T11:19:42.468Z,37.17
2022-12-05T11:22:34.207Z,39.25
2022-12-05T11:25:32.013Z,31.70
2022-12-05T11:28:18.055Z,35.65
2022-12-05T11:31:08.611Z,38.53
2022-12-05T11:33:37.555Z,32.75
2022-12-05T11:36:23.158Z,31.35
2022-12-05T11:38:52.319Z,34.28
2022-12-05T11:41:50.025Z,37.45
2022-12-05T11:44:46.809Z,32.58
2022-12-05T11:47:23.665Z,40.45
2022-12-05T11:49:56.987Z,36.28
2022-12-05T11:52:27.858Z,33.92
2022-12-05T11:55:11.666Z,36.15
2022-12-05T11:57:53.958Z,38.58
2022-12-05T12:00:36.004Z,34.83
2022-12-05T12:03:20.518Z,50.58
2022-12-05T12:06:27.788Z,32.15
2022-12-05T12:09:10.805Z,31.65
2022-12-05T12:11:55.932Z,32.28
2022-12-05T12:14:30.788Z,34.90
2022-12-05T12:17:01.953Z,35.10
2022-12-05T12:20:05.209Z,33.03
2022-12-05T12:22:39.555Z,32.65
2022-12-05T12:25:30.997Z,39.00
2022-12-05T12:28:06.231Z,33.40
2022-12-05T12:30:53.110Z,40.22
2022-12-05T12:33:39.980Z,35.45
2022-12-05T12:36:13.293Z,39.05
2022-12-05T12:38:41.530Z,35.83
2022-12-05T12:41:09.586Z,36.40
2022-12-05T12:43:56.035Z,32.67
2022-12-05T12:46:27.213Z,38.03
2022-12-05T12:49:09.149Z,36.05
2022-12-05T12:51:42.130Z,42.08
2022-12-05T12:54:25.331Z,35.38
2022-12-05T12:57:14.652Z,37.20
2022-12-05T13:00:16.721Z,37.38
2022-12-05T13:03:19.054Z,35.42
2022-12-05T13:06:00.001Z,35.25
2022-12-05T13:08:32.611Z,67.22
2022-12-05T13:11:02.136Z,43.92
2022-12-05T13:13:43.966Z,33.78
2022-12-05T13:16:17.318Z,32.95
2022-12-05T13:18:47.262Z,30.13
2022-12-05T13:21:37.436Z,29.63
2022-12-05T13:24:28.431Z,99.30
2022-12-05T13:27:17.735Z,42.85
2022-12-05T13:29:57.284Z,38.13
2022-12-05T13:32:26.552Z,34.30
2022-12-05T13:34:58.463Z,33.35
2022-12-05T13:37:45.995Z,34.13
2022-12-05T13:40:50.163Z,32.83
2022-12-05T13:43:30.040Z,29.73
2022-12-05T13:46:13.815Z,30.58
2022-12-05T13:48:51.115Z,31.77
2022-12-05T13:51:42.733Z,28.80
2022-12-05T13:54:25.827Z,28.30
2022-12-05T13:57:32.240Z,36.65
2022-12-05T14:00:10.614Z,35.78
2022-12-05T14:03:04.780Z,31.48
2022-12-05T14:05:44.004Z,33.67
2022-12-05T14:08:27.545Z,34.35
2022-12-05T14:10:55.659Z,31.60
2022-12-05T14:13:25.474Z,35.75
2022-12-05T14:15:56.221Z,31.40
2022-12-05T14:18:27.674Z,30.83
2022-12-05T14:20:58.500Z,53.63
2022-12-05T14:23:50.117Z,34.50
2022-12-05T14:26:20.377Z,34.58
2022-12-05T14:28:48.480Z,35.58
2022-12-05T14:31:38.259Z,41.88
2022-12-05T14:34:16.313Z,31.77
2022-12-05T14:37:02.333Z,31.50
2022-12-05T14:39:46.010Z,35.90
2022-12-05T14:42:28.297Z,32.10
2022-12-05T14:45:01.692Z,32.20
2022-12-05T14:47:35.191Z,29.85
2022-12-05T14:50:17.889Z,28.30
2022-12-05T14:52:47.035Z,32.90
2022-12-05T14:55:30.155Z,30.47
2022-12-05T14:58:31.177Z,28.55
2022-12-05T15:01:15.555Z,32.65
2022-12-05T15:04:05.559Z,37.83
2022-12-05T15:06:43.825Z,28.42
2022-12-05T15:09:37.924Z,32.00
2022-12-05T15:12:19.395Z,32.00
2022-12-05T15:14:51.129Z,31.30
2022-12-05T15:17:42.104Z,31.38
2022-12-05T15:20:45.135Z,31.80
2022-12-05T15:23:46.195Z,29.95
2022-12-05T15:26:48.554Z,31.40
2022-12-05T15:29:33.614Z,31.02
2022-12-05T15:32:22.367Z,35.33
2022-12-05T15:35:02.003Z,44.08
2022-12-05T15:37:53.850Z,33.13
2022-12-05T15:40:37.891Z,32.05
2022-12-05T15:43:28.168Z,30.30
2022-12-05T15:46:25.013Z,25.20
2022-12-05T15:49:17.034Z,27.15
2022-12-05T15:51:57.045Z,31.45
2022-12-05T15:54:39.707Z,33.25
2022-12-05T15:57:28.433Z,32.53
2022-12-05T16:00:07.300Z,35.05
2022-12-05T16:03:00.756Z,35.83
2022-12-05T16:05:39.225Z,37.22
2022-12-05T16:08:13.588Z,48.63
2022-12-05T16:10:44.454Z,39.05
2022-12-05T16:13:27.475Z,30.45
2022-12-05T16:16:06.524Z,31.58
2022-12-05T16:18:57.446Z,33.92
2022-12-05T16:21:49.074Z,33.78
2022-12-05T16:24:22.801Z,34.20
2022-12-05T16:26:59.849Z,32.47
2022-12-05T16:29:29.789Z,29.25
2022-12-05T16:31:59.098Z,29.85
2022-12-05T16:34:28.897Z,30.95
2022-12-05T16:36:57.760Z,33.00
2022-12-05T16:39:30.132Z,30.63
2022-12-05T16:41:58.559Z,29.27
2022-12-05T16:44:26.625Z,37.78
2022-12-05T16:46:56.411Z,29.88
2022-12-05T16:49:37.016Z,46.97
2022-12-05T16:52:08.531Z,63.13
2022-12-05T16:54:36.950Z,41.42
2022-12-05T16:57:19.317Z,39.28
2022-12-05T17:00:08.126Z,43.22
2022-12-05T17:03:25.907Z,30.77
2022-12-05T17:06:05.725Z,30.90
2022-12-05T17:08:54.101Z,56.40
2022-12-05T17:11:45.862Z,52.30
2022-12-05T17:14:33.601Z,54.78
2022-12-05T17:17:25.965Z,42.42
2022-12-05T17:19:54.743Z,39.97
2022-12-05T17:22:44.882Z,31.52
2022-12-05T17:25:23.024Z,40.05
2022-12-05T17:28:04.723Z,52.38
2022-12-05T17:30:35.413Z,44.65
2022-12-05T17:33:19.543Z,38.35
2022-12-05T17:35:50.947Z,40.42
2022-12-05T17:38:19.621Z,31.95
2022-12-05T17:40:48.322Z,35.42
2022-12-05T17:43:24.698Z,34.65
2022-12-05T17:45:54.749Z,36.35
2022-12-05T17:48:26.450Z,35.78
2022-12-05T17:50:57.757Z,29.98
2022-12-05T17:53:26.098Z,34.00
2022-12-05T17:55:57.137Z,30.70
2022-12-05T17:58:25.721Z,36.92
2022-12-05T18:00:56.617Z,31.10
2022-12-05T18:03:46.999Z,41.38
2022-12-05T18:06:34.592Z,31.42
2022-12-05T18:09:23.922Z,31.02
2022-12-05T18:12:03.148Z,28.27
2022-12-05T18:14:50.783Z,40.33
2022-12-05T18:17:38.561Z,36.13
2022-12-05T18:20:24.250Z,34.67
2022-12-05T18:23:11.949Z,51.70
2022-12-05T18:26:00.570Z,89.97
2022-12-05T18:28:48.160Z,46.63
2022-12-05T18:31:38.339Z,41.28
2022-12-05T18:34:26.173Z,39.03
2022-12-05T18:36:59.474Z,37.25
2022-12-05T18:39:28.283Z,54.25
2022-12-05T18:41:57.091Z,44.63
2022-12-05T18:44:49.300Z,32.67
2022-12-05T18:47:37.234Z,34.33
2022-12-05T18:50:27.381Z,37.53
2022-12-05T18:53:14.971Z,35.33
2022-12-05T18:56:05.221Z,34.53
2022-12-05T18:58:32.214Z,28.13
2022-12-05T19:01:05.478Z,33.00
2022-12-05T19:03:37.759Z,39.88
2022-12-05T19:06:21.548Z,87.95
2022-12-05T19:09:13.103Z,121.97
2022-12-05T19:12:01.512Z,54.20
2022-12-05T19:14:51.401Z,42.35
2022-12-05T19:17:21.923Z,48.08
2022-12-05T19:19:50.753Z,58.47
2022-12-05T19:22:21.968Z,54.60
2022-12-05T19:24:51.426Z,49.75
2022-12-05T19:27:19.870Z,46.00
2022-12-05T19:30:09.851Z,48.90
2022-12-05T19:32:58.237Z,48.63
2022-12-05T19:35:48.363Z,45.58
2022-12-05T19:38:36.280Z,49.70
2022-12-05T19:41:09.031Z,63.67
2022-12-05T19:43:40.852Z,70.50
2022-12-05T19:46:12.685Z,55.13
2022-12-05T19:48:42.275Z,49.65
2022-12-05T19:51:30.746Z,50.40
2022-12-05T19:54:14.321Z,70.47
2022-12-05T19:57:00.637Z,104.60
2022-12-05T19:59:48.281Z,88.80
2022-12-05T20:02:40.288Z,77.35
2022-12-05T20:05:29.560Z,64.63
2022-12-05T20:08:19.646Z,54.17
2022-12-05T20:11:07.565Z,58.95
2022-12-05T20:13:53.650Z,71.85
2022-12-05T20:16:27.910Z,55.53
2022-12-05T20:18:59.250Z,78.85
2022-12-05T20:21:31.366Z,64.07
2022-12-05T20:24:03.197Z,60.28
2022-12-05T20:26:38.609Z,49.42
2022-12-05T20:29:07.589Z,57.85
2022-12-05T20:31:37.536Z,45.65
2022-12-05T20:34:25.129Z,50.58
2022-12-05T20:37:12.704Z,41.88
2022-12-05T20:39:57.833Z,46.13
2022-12-05T20:42:50.488Z,55.58
2022-12-05T20:45:38.005Z,40.67
2022-12-05T20:48:26.930Z,42.92
2022-12-05T20:51:12.598Z,46.38
2022-12-05T20:53:59.949Z,52.60
2022-12-05T20:56:49.069Z,43.42
2022-12-05T20:59:36.816Z,38.97
2022-12-05T21:02:17.689Z,39.83
2022-12-05T21:05:10.018Z,39.03
2022-12-05T21:07:41.143Z,35.97
2022-12-05T21:10:28.768Z,36.72
2022-12-05T21:13:16.387Z,36.97
2022-12-05T21:16:05.325Z,37.90
2022-12-05T21:18:38.384Z,42.17
2022-12-05T21:21:09.597Z,31.88
2022-12-05T21:23:38.805Z,34.53
2022-12-05T21:26:11.856Z,42.60
2022-12-05T21:28:42.160Z,34.88
2022-12-05T21:31:24.280Z,37.78
2022-12-05T21:33:56.174Z,42.20
2022-12-05T21:36:25.495Z,39.30
2022-12-05T21:38:57.399Z,37.50
2022-12-05T21:41:26.248Z,41.05
2022-12-05T21:43:55.764Z,38.03
2022-12-05T21:46:26.562Z,41.20
2022-12-05T21:48:56.750Z,40.10
2022-12-05T21:51:46.763Z,37.97
2022-12-05T21:54:36.961Z,41.88
2022-12-05T21:57:31.985Z,42.92
2022-12-05T22:00:21.679Z,35.65
2022-12-05T22:03:14.583Z,42.58
2022-12-05T22:06:04.678Z,36.05
2022-12-05T22:08:55.046Z,45.38
2022-12-05T22:11:42.602Z,39.63
2022-12-05T22:14:28.845Z,39.85
2022-12-05T22:17:12.498Z,37.65
2022-12-05T22:19:59.831Z,37.50
2022-12-05T22:22:47.533Z,37.95
2022-12-05T22:25:35.124Z,41.10
2022-12-05T22:28:18.697Z,47.45
2022-12-05T22:31:03.785Z,43.63
2022-12-05T22:33:48.646Z,41.15
2022-12-05T22:36:36.390Z,38.63
2022-12-05T22:39:23.991Z,42.42
2022-12-05T22:42:11.440Z,36.20
2022-12-05T22:44:58.291Z,41.88
2022-12-05T22:47:45.924Z,37.33
2022-12-05T22:50:26.155Z,37.80
2022-12-05T22:53:10.655Z,37.80
2022-12-05T22:56:02.855Z,39.05
2022-12-05T22:58:53.688Z,34.65
2022-12-05T23:01:41.594Z,42.90
2022-12-05T23:04:20.177Z,45.60
2022-12-05T23:07:05.492Z,36.60
2022-12-05T23:09:51.816Z,40.20
2022-12-05T23:12:39.412Z,42.60
2022-12-05T23:15:20.127Z,34.30
2022-12-05T23:18:08.555Z,33.17
2022-12-05T23:20:38.338Z,40.92
2022-12-05T23:23:09.241Z,43.15
2022-12-05T23:25:38.372Z,36.15
2022-12-05T23:28:07.754Z,38.75
2022-12-05T23:30:41.695Z,42.63
2022-12-05T23:33:29.320Z,39.80
2022-12-05T23:36:12.080Z,39.90
2022-12-05T23:38:55.465Z,37.45
2022-12-05T23:41:36.101Z,37.80
2022-12-05T23:44:21.777Z,37.03
2022-12-05T23:47:08.826Z,46.78
2022-12-05T23:49:46.613Z,40.38
2022-12-05T23:52:18.350Z,45.22
2022-12-05T23:54:48.701Z,44.25
2022-12-05T23:57:17.952Z,42.47
2022-12-05T23:59:46.848Z,39.70
